sensor_id;sensor_type;location;lat;lon;timestamp;temperature;humidity
70074;DHT22;57445;51.058;3.698;2023-02-01T00:01:36;8.00;99.90
70074;DHT22;57445;51.058;3.698;2023-02-01T00:04:03;8.00;99.90
70074;DHT22;57445;51.058;3.698;2023-02-01T00:06:31;7.90;99.90
70074;DHT22;57445;51.058;3.698;2023-02-01T00:09:03;7.90;99.90
70074;DHT22;57445;51.058;3.698;2023-02-01T00:11:32;7.70;99.90
70074;DHT22;57445;51.058;3.698;2023-02-01T00:13:59;7.80;99.90
70074;DHT22;57445;51.058;3.698;2023-02-01T00:16:28;7.80;99.90
70074;DHT22;57445;51.058;3.698;2023-02-01T00:18:56;7.60;99.90
70074;DHT22;57445;51.058;3.698;2023-02-01T00:21:29;7.50;99.90
70074;DHT22;57445;51.058;3.698;2023-02-01T00:23:57;7.40;99.90
70074;DHT22;57445;51.058;3.698;2023-02-01T00:26:26;7.30;99.90
70074;DHT22;57445;51.058;3.698;2023-02-01T00:28:56;7.40;99.90
70074;DHT22;57445;51.058;3.698;2023-02-01T00:31:23;7.30;99.90
70074;DHT22;57445;51.058;3.698;2023-02-01T00:33:56;7.40;99.90
70074;DHT22;57445;51.058;3.698;2023-02-01T00:36:23;7.40;99.90
70074;DHT22;57445;51.058;3.698;2023-02-01T00:38:51;7.30;99.90
70074;DHT22;57445;51.058;3.698;2023-02-01T00:41:19;7.20;99.90
70074;DHT22;57445;51.058;3.698;2023-02-01T00:43:48;7.20;99.90
70074;DHT22;57445;51.058;3.698;2023-02-01T00:46:18;7.10;99.90
70074;DHT22;57445;51.058;3.698;2023-02-01T00:48:50;7.00;99.90
70074;DHT22;57445;51.058;3.698;2023-02-01T00:51:18;6.90;99.90
70074;DHT22;57445;51.058;3.698;2023-02-01T00:53:47;6.90;99.90
70074;DHT22;57445;51.058;3.698;2023-02-01T00:56:14;7.00;99.90
70074;DHT22;57445;51.058;3.698;2023-02-01T00:58:42;6.90;99.90
70074;DHT22;57445;51.058;3.698;2023-02-01T01:01:20;6.80;99.90
70074;DHT22;57445;51.058;3.698;2023-02-01T01:03:48;6.70;99.90
70074;DHT22;57445;51.058;3.698;2023-02-01T01:06:17;6.70;99.90
70074;DHT22;57445;51.058;3.698;2023-02-01T01:08:51;6.60;99.90
70074;DHT22;57445;51.058;3.698;2023-02-01T01:11:24;6.70;99.90
70074;DHT22;57445;51.058;3.698;2023-02-01T01:13:52;6.70;99.90
70074;DHT22;57445;51.058;3.698;2023-02-01T01:16:23;6.70;99.90
70074;DHT22;57445;51.058;3.698;2023-02-01T01:18:51;6.60;99.90
70074;DHT22;57445;51.058;3.698;2023-02-01T01:21:18;6.60;99.90
70074;DHT22;57445;51.058;3.698;2023-02-01T01:23:46;6.60;99.90
70074;DHT22;57445;51.058;3.698;2023-02-01T01:26:15;6.60;99.90
70074;DHT22;57445;51.058;3.698;2023-02-01T01:28:43;6.50;99.90
70074;DHT22;57445;51.058;3.698;2023-02-01T01:31:11;6.50;99.90
70074;DHT22;57445;51.058;3.698;2023-02-01T01:33:40;6.70;99.90
70074;DHT22;57445;51.058;3.698;2023-02-01T01:36:07;6.60;99.90
70074;DHT22;57445;51.058;3.698;2023-02-01T01:38:37;6.60;99.90
70074;DHT22;57445;51.058;3.698;2023-02-01T01:41:12;6.60;99.90
70074;DHT22;57445;51.058;3.698;2023-02-01T01:43:47;6.60;99.90
70074;DHT22;57445;51.058;3.698;2023-02-01T01:46:16;6.50;99.90
70074;DHT22;57445;51.058;3.698;2023-02-01T01:48:50;6.40;99.90
70074;DHT22;57445;51.058;3.698;2023-02-01T01:51:24;6.50;99.90
70074;DHT22;57445;51.058;3.698;2023-02-01T01:53:55;6.50;99.90
70074;DHT22;57445;51.058;3.698;2023-02-01T01:56:24;6.40;99.90
70074;DHT22;57445;51.058;3.698;2023-02-01T01:58:52;6.30;99.90
70074;DHT22;57445;51.058;3.698;2023-02-01T02:01:20;6.20;99.90
70074;DHT22;57445;51.058;3.698;2023-02-01T02:03:49;6.30;99.90
70074;DHT22;57445;51.058;3.698;2023-02-01T02:06:20;6.40;99.90
70074;DHT22;57445;51.058;3.698;2023-02-01T02:08:52;6.30;99.90
70074;DHT22;57445;51.058;3.698;2023-02-01T02:11:19;6.30;99.90
70074;DHT22;57445;51.058;3.698;2023-02-01T02:13:48;6.30;99.90
70074;DHT22;57445;51.058;3.698;2023-02-01T02:16:19;6.30;99.90
70074;DHT22;57445;51.058;3.698;2023-02-01T02:18:57;6.30;99.90
70074;DHT22;57445;51.058;3.698;2023-02-01T02:21:41;6.30;99.90
70074;DHT22;57445;51.058;3.698;2023-02-01T02:27:10;6.40;99.90
70074;DHT22;57445;51.058;3.698;2023-02-01T02:30:01;6.30;99.90
70074;DHT22;57445;51.058;3.698;2023-02-01T02:32:45;6.40;99.90
70074;DHT22;57445;51.058;3.698;2023-02-01T02:35:20;6.30;99.90
70074;DHT22;57445;51.058;3.698;2023-02-01T02:37:53;6.40;99.90
70074;DHT22;57445;51.058;3.698;2023-02-01T02:40:22;6.50;99.90
70074;DHT22;57445;51.058;3.698;2023-02-01T02:42:57;6.60;99.90
70074;DHT22;57445;51.058;3.698;2023-02-01T02:45:49;6.40;99.90
70074;DHT22;57445;51.058;3.698;2023-02-01T02:48:42;6.30;99.90
70074;DHT22;57445;51.058;3.698;2023-02-01T02:51:14;6.40;99.90
70074;DHT22;57445;51.058;3.698;2023-02-01T02:54:02;6.30;99.90
70074;DHT22;57445;51.058;3.698;2023-02-01T02:56:51;6.50;99.90
70074;DHT22;57445;51.058;3.698;2023-02-01T02:59:38;6.40;99.90
70074;DHT22;57445;51.058;3.698;2023-02-01T03:02:24;6.30;99.90
70074;DHT22;57445;51.058;3.698;2023-02-01T03:05:11;6.40;99.90
70074;DHT22;57445;51.058;3.698;2023-02-01T03:08:01;6.40;99.90
70074;DHT22;57445;51.058;3.698;2023-02-01T03:10:32;6.50;99.90
70074;DHT22;57445;51.058;3.698;2023-02-01T03:13:06;6.30;99.90
70074;DHT22;57445;51.058;3.698;2023-02-01T03:15:45;6.30;99.90
70074;DHT22;57445;51.058;3.698;2023-02-01T03:18:15;6.50;99.90
70074;DHT22;57445;51.058;3.698;2023-02-01T03:20:45;6.50;99.90
70074;DHT22;57445;51.058;3.698;2023-02-01T03:23:15;6.50;99.90
70074;DHT22;57445;51.058;3.698;2023-02-01T03:25:43;6.20;99.90
70074;DHT22;57445;51.058;3.698;2023-02-01T03:28:11;6.30;99.90
70074;DHT22;57445;51.058;3.698;2023-02-01T03:30:39;6.40;99.90
70074;DHT22;57445;51.058;3.698;2023-02-01T03:33:09;6.50;99.90
70074;DHT22;57445;51.058;3.698;2023-02-01T03:35:40;6.50;99.90
70074;DHT22;57445;51.058;3.698;2023-02-01T03:38:12;6.50;99.90
70074;DHT22;57445;51.058;3.698;2023-02-01T03:40:48;6.50;99.90
70074;DHT22;57445;51.058;3.698;2023-02-01T03:43:18;6.60;99.90
70074;DHT22;57445;51.058;3.698;2023-02-01T03:45:48;6.50;99.90
70074;DHT22;57445;51.058;3.698;2023-02-01T03:48:18;6.30;99.90
70074;DHT22;57445;51.058;3.698;2023-02-01T03:50:48;6.40;99.90
70074;DHT22;57445;51.058;3.698;2023-02-01T03:53:16;6.50;99.90
70074;DHT22;57445;51.058;3.698;2023-02-01T03:55:44;6.40;99.90
70074;DHT22;57445;51.058;3.698;2023-02-01T03:58:19;6.40;99.90
70074;DHT22;57445;51.058;3.698;2023-02-01T04:00:51;6.40;99.90
70074;DHT22;57445;51.058;3.698;2023-02-01T04:03:25;6.30;99.90
70074;DHT22;57445;51.058;3.698;2023-02-01T04:05:53;6.60;99.90
70074;DHT22;57445;51.058;3.698;2023-02-01T04:08:25;6.30;99.90
70074;DHT22;57445;51.058;3.698;2023-02-01T04:10:52;6.20;99.90
70074;DHT22;57445;51.058;3.698;2023-02-01T04:13:25;6.10;99.90
70074;DHT22;57445;51.058;3.698;2023-02-01T04:15:59;6.20;99.90
70074;DHT22;57445;51.058;3.698;2023-02-01T04:18:27;6.30;99.90
70074;DHT22;57445;51.058;3.698;2023-02-01T04:20:55;6.30;99.90
70074;DHT22;57445;51.058;3.698;2023-02-01T04:23:27;6.10;99.90
70074;DHT22;57445;51.058;3.698;2023-02-01T04:25:58;6.00;99.90
70074;DHT22;57445;51.058;3.698;2023-02-01T04:28:27;6.00;99.90
70074;DHT22;57445;51.058;3.698;2023-02-01T04:31:00;5.90;99.90
70074;DHT22;57445;51.058;3.698;2023-02-01T04:33:27;6.00;99.90
70074;DHT22;57445;51.058;3.698;2023-02-01T04:35:54;6.30;99.90
70074;DHT22;57445;51.058;3.698;2023-02-01T04:38:28;6.20;99.90
70074;DHT22;57445;51.058;3.698;2023-02-01T04:41:02;6.00;99.90
70074;DHT22;57445;51.058;3.698;2023-02-01T04:43:31;6.00;99.90
70074;DHT22;57445;51.058;3.698;2023-02-01T04:45:59;6.50;99.90
70074;DHT22;57445;51.058;3.698;2023-02-01T04:48:26;6.10;99.90
70074;DHT22;57445;51.058;3.698;2023-02-01T04:50:54;6.10;99.90
70074;DHT22;57445;51.058;3.698;2023-02-01T04:53:26;6.00;99.90
70074;DHT22;57445;51.058;3.698;2023-02-01T04:55:53;6.00;99.90
70074;DHT22;57445;51.058;3.698;2023-02-01T04:58:21;6.00;99.90
70074;DHT22;57445;51.058;3.698;2023-02-01T05:00:54;6.00;99.90
70074;DHT22;57445;51.058;3.698;2023-02-01T05:03:22;6.10;99.90
70074;DHT22;57445;51.058;3.698;2023-02-01T05:05:49;5.90;99.90
70074;DHT22;57445;51.058;3.698;2023-02-01T05:08:24;5.90;99.90
70074;DHT22;57445;51.058;3.698;2023-02-01T05:10:56;6.00;99.90
70074;DHT22;57445;51.058;3.698;2023-02-01T05:13:24;5.90;99.90
70074;DHT22;57445;51.058;3.698;2023-02-01T05:16:12;5.90;99.90
70074;DHT22;57445;51.058;3.698;2023-02-01T05:18:44;6.30;99.90
70074;DHT22;57445;51.058;3.698;2023-02-01T05:21:11;6.00;99.90
70074;DHT22;57445;51.058;3.698;2023-02-01T05:23:43;6.00;99.90
70074;DHT22;57445;51.058;3.698;2023-02-01T05:26:30;5.90;99.90
70074;DHT22;57445;51.058;3.698;2023-02-01T05:29:03;5.80;99.90
70074;DHT22;57445;51.058;3.698;2023-02-01T05:31:37;5.90;99.90
70074;DHT22;57445;51.058;3.698;2023-02-01T05:34:09;5.80;99.90
70074;DHT22;57445;51.058;3.698;2023-02-01T05:36:41;5.70;99.90
70074;DHT22;57445;51.058;3.698;2023-02-01T05:39:13;5.70;99.90
70074;DHT22;57445;51.058;3.698;2023-02-01T05:41:45;5.60;99.90
70074;DHT22;57445;51.058;3.698;2023-02-01T05:44:13;5.80;99.90
70074;DHT22;57445;51.058;3.698;2023-02-01T05:46:42;5.70;99.90
70074;DHT22;57445;51.058;3.698;2023-02-01T05:49:14;5.80;99.90
70074;DHT22;57445;51.058;3.698;2023-02-01T05:51:41;5.70;99.90
70074;DHT22;57445;51.058;3.698;2023-02-01T05:54:09;5.70;99.90
70074;DHT22;57445;51.058;3.698;2023-02-01T05:56:41;5.60;99.90
70074;DHT22;57445;51.058;3.698;2023-02-01T05:59:08;5.70;99.90
70074;DHT22;57445;51.058;3.698;2023-02-01T06:01:36;5.80;99.90
70074;DHT22;57445;51.058;3.698;2023-02-01T06:04:05;5.70;99.90
70074;DHT22;57445;51.058;3.698;2023-02-01T06:06:33;5.90;99.90
70074;DHT22;57445;51.058;3.698;2023-02-01T06:09:00;5.80;99.90
70074;DHT22;57445;51.058;3.698;2023-02-01T06:11:28;5.70;99.90
70074;DHT22;57445;51.058;3.698;2023-02-01T06:13:55;5.70;99.90
70074;DHT22;57445;51.058;3.698;2023-02-01T06:16:23;5.90;99.90
70074;DHT22;57445;51.058;3.698;2023-02-01T06:18:50;5.60;99.90
70074;DHT22;57445;51.058;3.698;2023-02-01T06:21:24;5.70;99.90
70074;DHT22;57445;51.058;3.698;2023-02-01T06:23:55;5.80;99.90
70074;DHT22;57445;51.058;3.698;2023-02-01T06:26:24;5.70;99.90
70074;DHT22;57445;51.058;3.698;2023-02-01T06:28:51;5.80;99.90
70074;DHT22;57445;51.058;3.698;2023-02-01T06:31:23;5.60;99.90
70074;DHT22;57445;51.058;3.698;2023-02-01T06:33:56;5.70;99.90
70074;DHT22;57445;51.058;3.698;2023-02-01T06:36:25;5.60;99.90
70074;DHT22;57445;51.058;3.698;2023-02-01T06:38:52;5.60;99.90
70074;DHT22;57445;51.058;3.698;2023-02-01T06:41:23;5.70;99.90
70074;DHT22;57445;51.058;3.698;2023-02-01T06:43:51;5.70;99.90
70074;DHT22;57445;51.058;3.698;2023-02-01T06:46:23;5.60;99.90
70074;DHT22;57445;51.058;3.698;2023-02-01T06:48:50;5.60;99.90
70074;DHT22;57445;51.058;3.698;2023-02-01T06:54:01;5.80;99.90
70074;DHT22;57445;51.058;3.698;2023-02-01T06:56:33;5.80;99.90
70074;DHT22;57445;51.058;3.698;2023-02-01T06:59:02;5.80;99.90
70074;DHT22;57445;51.058;3.698;2023-02-01T07:01:30;5.70;99.90
70074;DHT22;57445;51.058;3.698;2023-02-01T07:03:58;5.70;99.90
70074;DHT22;57445;51.058;3.698;2023-02-01T07:06:26;5.70;99.90
70074;DHT22;57445;51.058;3.698;2023-02-01T07:08:54;5.70;99.90
70074;DHT22;57445;51.058;3.698;2023-02-01T07:11:23;5.70;99.90
70074;DHT22;57445;51.058;3.698;2023-02-01T07:13:53;5.80;99.90
70074;DHT22;57445;51.058;3.698;2023-02-01T07:16:21;5.80;99.90
70074;DHT22;57445;51.058;3.698;2023-02-01T07:18:50;5.90;99.90
70074;DHT22;57445;51.058;3.698;2023-02-01T07:21:17;5.80;99.90
70074;DHT22;57445;51.058;3.698;2023-02-01T07:23:49;5.80;99.90
70074;DHT22;57445;51.058;3.698;2023-02-01T07:26:23;6.00;99.90
70074;DHT22;57445;51.058;3.698;2023-02-01T07:28:51;5.80;99.90
70074;DHT22;57445;51.058;3.698;2023-02-01T07:31:23;6.10;99.90
70074;DHT22;57445;51.058;3.698;2023-02-01T07:33:52;5.90;99.90
70074;DHT22;57445;51.058;3.698;2023-02-01T07:36:25;5.90;99.90
70074;DHT22;57445;51.058;3.698;2023-02-01T07:38:53;6.00;99.90
70074;DHT22;57445;51.058;3.698;2023-02-01T07:41:26;6.10;99.90
70074;DHT22;57445;51.058;3.698;2023-02-01T07:43:58;6.00;99.90
70074;DHT22;57445;51.058;3.698;2023-02-01T07:46:26;5.90;99.90
70074;DHT22;57445;51.058;3.698;2023-02-01T07:48:53;6.20;99.90
70074;DHT22;57445;51.058;3.698;2023-02-01T07:51:21;6.30;99.90
70074;DHT22;57445;51.058;3.698;2023-02-01T07:53:53;6.30;99.90
70074;DHT22;57445;51.058;3.698;2023-02-01T07:56:20;6.20;99.90
70074;DHT22;57445;51.058;3.698;2023-02-01T07:58:54;6.20;99.90
70074;DHT22;57445;51.058;3.698;2023-02-01T08:01:22;6.30;99.90
70074;DHT22;57445;51.058;3.698;2023-02-01T08:03:51;6.30;99.90
70074;DHT22;57445;51.058;3.698;2023-02-01T08:06:19;6.20;99.90
70074;DHT22;57445;51.058;3.698;2023-02-01T08:08:46;6.30;99.90
70074;DHT22;57445;51.058;3.698;2023-02-01T08:11:14;6.40;99.90
70074;DHT22;57445;51.058;3.698;2023-02-01T08:13:45;6.50;99.90
70074;DHT22;57445;51.058;3.698;2023-02-01T08:16:15;6.40;99.90
70074;DHT22;57445;51.058;3.698;2023-02-01T08:18:42;6.60;99.90
70074;DHT22;57445;51.058;3.698;2023-02-01T08:21:11;6.70;99.90
70074;DHT22;57445;51.058;3.698;2023-02-01T08:23:43;6.60;99.90
70074;DHT22;57445;51.058;3.698;2023-02-01T08:26:12;6.60;99.90
70074;DHT22;57445;51.058;3.698;2023-02-01T08:28:40;6.60;99.90
70074;DHT22;57445;51.058;3.698;2023-02-01T08:31:14;6.60;99.90
70074;DHT22;57445;51.058;3.698;2023-02-01T08:33:47;6.60;99.90
70074;DHT22;57445;51.058;3.698;2023-02-01T08:36:15;6.60;99.90
70074;DHT22;57445;51.058;3.698;2023-02-01T08:38:42;6.80;99.90
70074;DHT22;57445;51.058;3.698;2023-02-01T08:41:14;6.70;99.90
70074;DHT22;57445;51.058;3.698;2023-02-01T08:43:43;6.60;99.90
70074;DHT22;57445;51.058;3.698;2023-02-01T08:46:15;6.60;99.90
70074;DHT22;57445;51.058;3.698;2023-02-01T08:48:49;6.80;99.90
70074;DHT22;57445;51.058;3.698;2023-02-01T08:51:23;6.70;99.90
70074;DHT22;57445;51.058;3.698;2023-02-01T08:53:51;6.80;99.90
70074;DHT22;57445;51.058;3.698;2023-02-01T08:56:18;6.90;99.90
70074;DHT22;57445;51.058;3.698;2023-02-01T08:58:46;7.00;99.90
70074;DHT22;57445;51.058;3.698;2023-02-01T09:01:14;7.10;99.90
70074;DHT22;57445;51.058;3.698;2023-02-01T09:03:42;7.20;99.90
70074;DHT22;57445;51.058;3.698;2023-02-01T09:06:12;7.40;99.90
70074;DHT22;57445;51.058;3.698;2023-02-01T09:08:40;7.50;99.90
70074;DHT22;57445;51.058;3.698;2023-02-01T09:11:13;7.70;99.90
70074;DHT22;57445;51.058;3.698;2023-02-01T09:13:46;7.60;99.90
70074;DHT22;57445;51.058;3.698;2023-02-01T09:16:14;7.60;99.90
70074;DHT22;57445;51.058;3.698;2023-02-01T09:18:46;7.80;99.90
70074;DHT22;57445;51.058;3.698;2023-02-01T09:21:19;7.70;99.90
70074;DHT22;57445;51.058;3.698;2023-02-01T09:23:47;7.70;99.90
70074;DHT22;57445;51.058;3.698;2023-02-01T09:26:19;7.70;99.90
70074;DHT22;57445;51.058;3.698;2023-02-01T09:28:47;7.70;99.90
70074;DHT22;57445;51.058;3.698;2023-02-01T09:31:19;7.90;99.90
70074;DHT22;57445;51.058;3.698;2023-02-01T09:33:46;7.80;99.90
70074;DHT22;57445;51.058;3.698;2023-02-01T09:36:14;7.70;99.90
70074;DHT22;57445;51.058;3.698;2023-02-01T09:38:47;7.70;99.90
70074;DHT22;57445;51.058;3.698;2023-02-01T09:41:25;7.70;99.90
70074;DHT22;57445;51.058;3.698;2023-02-01T09:43:59;7.80;99.90
70074;DHT22;57445;51.058;3.698;2023-02-01T09:46:29;8.00;99.90
70074;DHT22;57445;51.058;3.698;2023-02-01T09:49:04;8.00;99.90
70074;DHT22;57445;51.058;3.698;2023-02-01T09:51:37;8.00;99.90
70074;DHT22;57445;51.058;3.698;2023-02-01T09:54:09;8.20;99.90
70074;DHT22;57445;51.058;3.698;2023-02-01T09:56:39;8.20;99.90
70074;DHT22;57445;51.058;3.698;2023-02-01T09:59:20;8.30;99.90
70074;DHT22;57445;51.058;3.698;2023-02-01T10:01:55;8.30;99.90
70074;DHT22;57445;51.058;3.698;2023-02-01T10:04:23;8.40;99.90
70074;DHT22;57445;51.058;3.698;2023-02-01T10:06:54;8.40;99.90
70074;DHT22;57445;51.058;3.698;2023-02-01T10:09:29;8.30;99.90
70074;DHT22;57445;51.058;3.698;2023-02-01T10:12:04;8.40;99.90
70074;DHT22;57445;51.058;3.698;2023-02-01T10:14:39;8.30;99.90
70074;DHT22;57445;51.058;3.698;2023-02-01T10:17:20;8.30;99.90
70074;DHT22;57445;51.058;3.698;2023-02-01T10:19:52;8.30;99.90
70074;DHT22;57445;51.058;3.698;2023-02-01T10:22:26;8.40;99.90
70074;DHT22;57445;51.058;3.698;2023-02-01T10:25:05;8.40;99.90
70074;DHT22;57445;51.058;3.698;2023-02-01T10:27:35;8.40;99.90
70074;DHT22;57445;51.058;3.698;2023-02-01T10:30:14;8.30;99.90
70074;DHT22;57445;51.058;3.698;2023-02-01T10:32:43;8.50;99.90
70074;DHT22;57445;51.058;3.698;2023-02-01T10:35:12;8.50;99.50
70074;DHT22;57445;51.058;3.698;2023-02-01T10:37:44;8.60;99.40
70074;DHT22;57445;51.058;3.698;2023-02-01T10:40:16;8.60;99.40
70074;DHT22;57445;51.058;3.698;2023-02-01T10:42:45;8.60;99.20
70074;DHT22;57445;51.058;3.698;2023-02-01T10:45:13;8.50;98.60
70074;DHT22;57445;51.058;3.698;2023-02-01T10:47:47;8.60;99.00
70074;DHT22;57445;51.058;3.698;2023-02-01T10:50:16;8.50;99.00
70074;DHT22;57445;51.058;3.698;2023-02-01T10:52:50;8.60;98.50
70074;DHT22;57445;51.058;3.698;2023-02-01T10:55:28;8.70;98.00
70074;DHT22;57445;51.058;3.698;2023-02-01T10:57:56;8.80;97.60
70074;DHT22;57445;51.058;3.698;2023-02-01T11:00:24;8.80;97.40
70074;DHT22;57445;51.058;3.698;2023-02-01T11:02:56;9.10;96.90
70074;DHT22;57445;51.058;3.698;2023-02-01T11:05:24;9.40;96.60
70074;DHT22;57445;51.058;3.698;2023-02-01T11:07:57;9.20;96.50
70074;DHT22;57445;51.058;3.698;2023-02-01T11:10:37;9.30;96.10
70074;DHT22;57445;51.058;3.698;2023-02-01T11:13:11;9.40;95.90
70074;DHT22;57445;51.058;3.698;2023-02-01T11:15:39;9.60;95.60
70074;DHT22;57445;51.058;3.698;2023-02-01T11:18:15;9.70;95.30
70074;DHT22;57445;51.058;3.698;2023-02-01T11:20:47;9.80;95.40
70074;DHT22;57445;51.058;3.698;2023-02-01T11:23:18;9.90;94.90
70074;DHT22;57445;51.058;3.698;2023-02-01T11:25:53;9.90;94.90
70074;DHT22;57445;51.058;3.698;2023-02-01T11:28:21;10.00;94.50
70074;DHT22;57445;51.058;3.698;2023-02-01T11:30:55;9.90;94.50
70074;DHT22;57445;51.058;3.698;2023-02-01T11:33:29;10.00;94.40
70074;DHT22;57445;51.058;3.698;2023-02-01T11:36:00;9.90;94.40
70074;DHT22;57445;51.058;3.698;2023-02-01T11:38:29;9.70;94.50
70074;DHT22;57445;51.058;3.698;2023-02-01T11:41:13;9.70;95.00
70074;DHT22;57445;51.058;3.698;2023-02-01T11:43:50;9.80;95.40
70074;DHT22;57445;51.058;3.698;2023-02-01T11:46:18;9.80;94.80
70074;DHT22;57445;51.058;3.698;2023-02-01T11:48:50;9.90;94.50
70074;DHT22;57445;51.058;3.698;2023-02-01T11:51:21;9.70;94.80
70074;DHT22;57445;51.058;3.698;2023-02-01T11:54:02;9.80;94.90
70074;DHT22;57445;51.058;3.698;2023-02-01T11:56:33;9.80;94.50
70074;DHT22;57445;51.058;3.698;2023-02-01T11:59:12;9.80;94.10
70074;DHT22;57445;51.058;3.698;2023-02-01T12:01:50;9.80;94.40
70074;DHT22;57445;51.058;3.698;2023-02-01T12:07:01;9.80;94.50
70074;DHT22;57445;51.058;3.698;2023-02-01T12:09:38;9.80;94.50
70074;DHT22;57445;51.058;3.698;2023-02-01T12:12:15;9.80;94.70
70074;DHT22;57445;51.058;3.698;2023-02-01T12:14:59;10.00;94.00
70074;DHT22;57445;51.058;3.698;2023-02-01T12:17:42;9.90;94.00
70074;DHT22;57445;51.058;3.698;2023-02-01T12:20:20;10.00;93.60
70074;DHT22;57445;51.058;3.698;2023-02-01T12:22:55;10.10;93.70
70074;DHT22;57445;51.058;3.698;2023-02-01T12:25:29;10.10;93.40
70074;DHT22;57445;51.058;3.698;2023-02-01T12:30:51;10.40;92.70
70074;DHT22;57445;51.058;3.698;2023-02-01T12:33:27;10.10;93.10
70074;DHT22;57445;51.058;3.698;2023-02-01T12:36:01;10.00;93.30
70074;DHT22;57445;51.058;3.698;2023-02-01T12:38:40;10.00;93.50
70074;DHT22;57445;51.058;3.698;2023-02-01T12:41:14;9.90;93.50
70074;DHT22;57445;51.058;3.698;2023-02-01T12:43:45;9.90;93.60
70074;DHT22;57445;51.058;3.698;2023-02-01T12:46:21;9.80;93.80
70074;DHT22;57445;51.058;3.698;2023-02-01T12:48:52;9.90;93.60
70074;DHT22;57445;51.058;3.698;2023-02-01T12:51:23;10.00;93.50
70074;DHT22;57445;51.058;3.698;2023-02-01T12:53:57;10.00;93.70
70074;DHT22;57445;51.058;3.698;2023-02-01T12:56:28;10.00;93.70
70074;DHT22;57445;51.058;3.698;2023-02-01T12:58:58;10.00;93.80
70074;DHT22;57445;51.058;3.698;2023-02-01T13:01:35;10.00;93.50
70074;DHT22;57445;51.058;3.698;2023-02-01T13:04:05;10.00;93.90
70074;DHT22;57445;51.058;3.698;2023-02-01T13:06:43;10.00;93.60
70074;DHT22;57445;51.058;3.698;2023-02-01T13:09:15;10.10;93.60
70074;DHT22;57445;51.058;3.698;2023-02-01T13:11:51;10.00;93.50
70074;DHT22;57445;51.058;3.698;2023-02-01T13:14:22;9.90;93.00
70074;DHT22;57445;51.058;3.698;2023-02-01T13:16:53;10.10;93.60
70074;DHT22;57445;51.058;3.698;2023-02-01T13:19:22;10.20;92.90
70074;DHT22;57445;51.058;3.698;2023-02-01T13:21:57;10.20;93.00
70074;DHT22;57445;51.058;3.698;2023-02-01T13:24:29;10.20;93.30
70074;DHT22;57445;51.058;3.698;2023-02-01T13:27:03;10.30;93.50
70074;DHT22;57445;51.058;3.698;2023-02-01T13:29:31;10.20;93.50
70074;DHT22;57445;51.058;3.698;2023-02-01T13:32:12;10.30;93.50
70074;DHT22;57445;51.058;3.698;2023-02-01T13:37:48;10.60;93.20
70074;DHT22;57445;51.058;3.698;2023-02-01T13:40:30;10.80;92.90
70074;DHT22;57445;51.058;3.698;2023-02-01T13:43:05;10.80;92.50
70074;DHT22;57445;51.058;3.698;2023-02-01T13:45:34;10.70;92.40
70074;DHT22;57445;51.058;3.698;2023-02-01T13:48:18;10.70;92.70
70074;DHT22;57445;51.058;3.698;2023-02-01T13:50:49;10.70;92.70
70074;DHT22;57445;51.058;3.698;2023-02-01T13:53:23;10.60;93.00
70074;DHT22;57445;51.058;3.698;2023-02-01T13:55:56;10.60;92.90
70074;DHT22;57445;51.058;3.698;2023-02-01T13:58:30;10.60;92.80
70074;DHT22;57445;51.058;3.698;2023-02-01T14:03:46;10.60;92.80
70074;DHT22;57445;51.058;3.698;2023-02-01T14:06:35;10.60;93.10
70074;DHT22;57445;51.058;3.698;2023-02-01T14:09:21;10.50;93.20
70074;DHT22;57445;51.058;3.698;2023-02-01T14:11:58;10.30;93.60
70074;DHT22;57445;51.058;3.698;2023-02-01T14:14:48;10.30;93.60
70074;DHT22;57445;51.058;3.698;2023-02-01T14:23:24;10.20;93.90
70074;DHT22;57445;51.058;3.698;2023-02-01T14:26:06;10.10;94.20
70074;DHT22;57445;51.058;3.698;2023-02-01T14:28:35;10.10;94.50
70074;DHT22;57445;51.058;3.698;2023-02-01T14:31:13;10.30;94.00
70074;DHT22;57445;51.058;3.698;2023-02-01T14:33:42;10.20;94.00
70074;DHT22;57445;51.058;3.698;2023-02-01T14:36:14;10.10;94.20
70074;DHT22;57445;51.058;3.698;2023-02-01T14:38:49;9.90;94.70
70074;DHT22;57445;51.058;3.698;2023-02-01T14:41:26;9.90;94.80
70074;DHT22;57445;51.058;3.698;2023-02-01T14:47:02;10.00;94.70
70074;DHT22;57445;51.058;3.698;2023-02-01T14:49:38;10.00;94.80
70074;DHT22;57445;51.058;3.698;2023-02-01T14:52:09;9.90;95.00
70074;DHT22;57445;51.058;3.698;2023-02-01T14:54:40;9.80;95.20
70074;DHT22;57445;51.058;3.698;2023-02-01T14:57:13;9.80;95.20
70074;DHT22;57445;51.058;3.698;2023-02-01T14:59:44;9.80;95.40
70074;DHT22;57445;51.058;3.698;2023-02-01T15:02:18;9.70;95.50
70074;DHT22;57445;51.058;3.698;2023-02-01T15:04:53;9.80;95.50
70074;DHT22;57445;51.058;3.698;2023-02-01T15:07:26;9.70;95.40
70074;DHT22;57445;51.058;3.698;2023-02-01T15:09:56;9.70;95.70
70074;DHT22;57445;51.058;3.698;2023-02-01T15:12:26;9.80;95.60
70074;DHT22;57445;51.058;3.698;2023-02-01T15:15:10;10.00;95.90
70074;DHT22;57445;51.058;3.698;2023-02-01T15:17:49;9.70;95.70
70074;DHT22;57445;51.058;3.698;2023-02-01T15:20:18;9.70;95.70
70074;DHT22;57445;51.058;3.698;2023-02-01T15:22:53;9.60;96.00
70074;DHT22;57445;51.058;3.698;2023-02-01T15:25:24;9.70;96.10
70074;DHT22;57445;51.058;3.698;2023-02-01T15:27:56;9.80;96.10
70074;DHT22;57445;51.058;3.698;2023-02-01T15:30:29;10.00;95.80
70074;DHT22;57445;51.058;3.698;2023-02-01T15:33:07;9.70;96.10
70074;DHT22;57445;51.058;3.698;2023-02-01T15:35:37;9.60;96.20
70074;DHT22;57445;51.058;3.698;2023-02-01T15:40:56;9.60;96.50
70074;DHT22;57445;51.058;3.698;2023-02-01T15:43:24;9.60;96.50
70074;DHT22;57445;51.058;3.698;2023-02-01T15:45:57;9.50;96.60
70074;DHT22;57445;51.058;3.698;2023-02-01T15:48:32;9.60;96.70
70074;DHT22;57445;51.058;3.698;2023-02-01T15:51:04;9.60;96.70
70074;DHT22;57445;51.058;3.698;2023-02-01T15:53:31;9.50;96.90
70074;DHT22;57445;51.058;3.698;2023-02-01T15:56:02;9.50;97.00
70074;DHT22;57445;51.058;3.698;2023-02-01T15:58:35;9.60;96.90
70074;DHT22;57445;51.058;3.698;2023-02-01T16:01:03;9.60;97.00
70074;DHT22;57445;51.058;3.698;2023-02-01T16:03:34;9.50;97.30
70074;DHT22;57445;51.058;3.698;2023-02-01T16:06:07;9.40;97.40
70074;DHT22;57445;51.058;3.698;2023-02-01T16:08:35;9.80;97.60
70074;DHT22;57445;51.058;3.698;2023-02-01T16:11:21;9.40;97.50
70074;DHT22;57445;51.058;3.698;2023-02-01T16:13:49;9.40;97.80
70074;DHT22;57445;51.058;3.698;2023-02-01T16:16:21;9.40;97.90
70074;DHT22;57445;51.058;3.698;2023-02-01T16:18:49;9.40;98.00
70074;DHT22;57445;51.058;3.698;2023-02-01T16:21:16;9.40;98.00
70074;DHT22;57445;51.058;3.698;2023-02-01T16:23:49;9.40;98.30
70074;DHT22;57445;51.058;3.698;2023-02-01T16:26:23;9.50;98.20
70074;DHT22;57445;51.058;3.698;2023-02-01T16:28:50;9.50;98.10
70074;DHT22;57445;51.058;3.698;2023-02-01T16:31:18;9.70;98.10
70074;DHT22;57445;51.058;3.698;2023-02-01T16:33:48;9.70;97.90
70074;DHT22;57445;51.058;3.698;2023-02-01T16:36:16;9.60;98.20
70074;DHT22;57445;51.058;3.698;2023-02-01T16:38:44;9.80;98.60
70074;DHT22;57445;51.058;3.698;2023-02-01T16:41:17;9.30;99.00
70074;DHT22;57445;51.058;3.698;2023-02-01T16:43:47;9.50;99.40